• Join FlightAware (Why Join?)
  • Login
  • US Flag 
05:30AM EST


 

Airport Tracker/Info


-or-


 

Live Flight TrackerFlight Track Log ✈ EJA922 ✈ 26-Jun-2013 ✈ KARR - KMKC

Flight Track Log - Related Links

Times and Time Zones

All times are in EDT time to prevent confusion due to time zone crossing. See the EJA922 flight status page for this flight to view local times or setup timezone preferences in your user account.

Time Position Orientation Groundspeed Altitude Reporting Facility
EDT Latitude Longitude Course Direction KTS MPH feet Rate Location/Type
05:04PM 41.7833 -88.5333 259° West 192 221 2,700  Level Chicago TRACON
05:05PM 41.8000 -88.6167 285° West 247 284 3,200 2,040 Climbing Chicago TRACON
05:08PM 41.7983 -88.8192 269° West 262 302 9,800 2,760 Climbing Chicago Center
05:09PM 41.7894 -88.9506 265° West 298 343 12,500 2,160 Climbing Chicago Center
05:10PM 41.6021 -89.2856 259° West  Level FlightAware Approximate
05:10PM 41.7822 -89.0736 266° West 330 380 14,400  Level Chicago Center
05:11PM 41.7725 -89.2064 264° West 357 411 16,400 1,860 Climbing Chicago Center
05:12PM 41.7536 -89.3439 260° West 380 437 18,300 1,740 Climbing Chicago Center
05:13PM 41.7106 -89.4744 246° West 386 444 20,000 1,500 Climbing Chicago Center
05:14PM 41.6583 -89.6342 246° West 402 463 21,500 1,320 Climbing Chicago Center
05:15PM 41.6117 -89.7747 246° West 415 478 22,800 1,380 Climbing Chicago Center
05:16PM 41.5650 -89.9178 246° West 421 484 24,400 1,320 Climbing Chicago Center
05:17PM 41.5175 -90.0603 246° West 423 487 25,600 1,200 Climbing Chicago Center
05:18PM 41.4675 -90.2094 246° West 436 502 27,000 1,200 Climbing Chicago Center
05:19PM 41.4069 -90.3889 246° West 442 509 28,200 1,140 Climbing Chicago Center
05:20PM 41.3547 -90.5417 246° West 449 517 29,400 1,200 Climbing Chicago Center
05:21PM 41.2894 -90.6939 240° Southwest 471 542 30,700 1,200 Climbing Chicago Center
05:22PM 41.2081 -90.8308 232° Southwest 474 545 32,000 600 Climbing Chicago Center
05:23PM 41.1233 -90.9733 232° Southwest 490 564 32,000  Level Chicago Center
05:24PM 41.0183 -91.1500 232° Southwest 510 587 32,000  Level Chicago Center
05:25PM 40.9289 -91.2983 231° Southwest 516 594 32,000  Level Chicago Center
05:26PM 40.8464 -91.4300 230° Southwest 516 594 32,000  Level Chicago Center
05:27PM 40.7275 -91.5933 226° Southwest 517 595 32,000  Level Chicago Center
05:28PM 40.6311 -91.7261 226° Southwest 506 582 32,000  Level Chicago Center
05:29PM 40.5347 -91.8581 226° Southwest 503 579 32,000  Level Chicago Center
05:30PM 40.4403 -91.9892 227° Southwest 498 573 32,000  Level Chicago Center
05:31PM 40.3642 -92.0947 227° Southwest 497 572 32,000  Level Kansas City Center
05:32PM 40.2875 -92.2792 241° Southwest 484 557 32,000  Level Kansas City Center
05:33PM 40.2233 -92.4353 242° Southwest 487 560 32,000  Level Kansas City Center
05:34PM 40.1603 -92.5933 242° Southwest 505 581 32,000  Level Kansas City Center
05:35PM 40.0869 -92.7750 242° Southwest 507 583 32,000  Level Kansas City Center
05:36PM 40.0217 -92.9350 242° Southwest 513 590 32,000 -300 Level Kansas City Center
05:37PM 39.9542 -93.0981 242° Southwest 513 590 31,400 -1,560 Descending Kansas City Center
05:39PM 39.8869 -93.2611 242° Southwest 513 590 28,800 -2,820 Descending Kansas City Center
05:40PM 39.8083 -93.4478 241° Southwest 496 571 25,600 -2,760 Descending Kansas City Center
05:41PM 39.7467 -93.5978 242° Southwest 485 558 23,200 -2,460 Descending Kansas City Center
05:42PM 39.6806 -93.7528 241° Southwest 457 526 20,600 -2,220 Descending Kansas City Center
05:43PM 39.5925 -93.9531 240° Southwest 443 510 17,800 -1,860 Descending Kansas City Center
05:44PM 39.5289 -94.0753 236° Southwest 427 491 16,000 -1,620 Descending Kansas City Center
05:45PM 39.4572 -94.2167 237° Southwest 421 484 14,500 -1,140 Descending Kansas City Center
05:46PM 39.3989 -94.3303 236° Southwest 396 456 13,600 -900 Descending Kansas City Center
05:47PM 39.2958 -94.3678 196° South 348 400 12,700 -2,040 Descending Kansas City Center
05:48PM 39.2142 -94.3850 189° South 317 365 9,800 -2,880 Descending Kansas City Center
05:49PM 39.1381 -94.3975 187° South 289 333 6,800 -2,040 Descending Kansas City Center
05:50PM 39.0664 -94.4344 202° Southwest 242 278 5,700 -1,320 Descending Kansas City Center
05:51PM 39.0172 -94.4781 215° Southwest 226 260 4,100 -1,500 Descending Kansas City Center
05:52PM 39.0172 -94.5539 270° West 192 221 2,700 -900 Descending Kansas City Center
05:53PM 39.0358 -94.6117 293° West 184 212 2,300 -600 Descending Kansas City Center
05:54PM 39.0842 -94.6050 North 151 174 1,500 -660 Descending Kansas City Center
05:55PM 39.1175 -94.5950 13° North 138 159 1,000 -540 Descending Kansas City Center